KOFK/OFK METAR and TAF weather

Enter ICAO airport designator
Station Type Date Time Source
KOFK METAR 2020/11/27 13:56 UTC NOAA

KOFK 271356Z AUTO 28006KT 10SM CLR M03/M07 A3023 RMK AO2 SLP256 T10281067


Station Type Date Time Source
KOFK Decoded METAR 2020/11/27 13:56 UTC NOAA

KARL STEFAN MEMORIAL AIRPORT, NE, United States (KOFK) 41-59N 097-26W 470M
Nov 27, 2020 - 08:56 AM EST / 2020.11.27 1356 UTC
Wind: from the W (280 degrees) at 7 MPH (6 KT):0
Visibility: 10 mile(s):0
Sky conditions: clear
Temperature: 27.0 F (-2.8 C)
Windchill: 19 F (-7 C):1
Dew Point: 19.9 F (-6.7 C)
Relative Humidity: 74%
Pressure (altimeter): 30.23 in. Hg (1023 hPa)
ob: KOFK 271356Z AUTO 28006KT 10SM CLR M03/M07 A3023 RMK AO2 SLP256 T10281067
cycle: 14

Station Type Date Time Source
KOFK TAF 2020/11/27 12:30 UTC NOAA

TAF KOFK 271128Z 2712/2812 28006KT P6SM SKC
FM271600 26012KT P6SM SKC
FM272300 21006KT P6SM SKC

Example: see airport list